Hauptseite
METAR-TAF:

METAR-TAF

Flughäfen :

Hawarden, Wales

Hawarden Airport

Breite: 53-10N, Länge: 002-59W, Höhe: 10 m

Beobachtung

Neuester Wetterbericht von vor 5 Stunden und 32 Minuten, um 18:50 UTC
Wind 4 kt aus Südost
Temperatur 8°C
Luftfeuchtigkeit 76%
Luftdruck 1021 hPa
Sichtweite 10 km oder mehr
keine Wolken unter 1500 m und keine Kumulonimbus oder Gewitterwolken

METAR: EGNR 191850Z 14004KT CAVOK 08/04 Q1021

Zeit: 00:22 (00:22 UTC)

Prognose

Neuester Wetterbericht von vor 7 Stunden und 22 Minuten, um 17:00 UTC
Gültige Prognose vom 19 um 18 UTC bis 19 um 21 UTC
Wind 3 kt aus unterschiedlichen Richtungen
Sichtweite 10 km oder mehr
Aufgelockert bewölkt in der Höhe von 3500 ft
Wahrscheinlichkeit 30% :
Zeitweise
vom 19 um 18 UTC bis 19 um 21 UTC
Sichtweite: 7000 m
Durchbrochene Bewölkung in der Höhe von 1200 ft
Leichtregen

TAF: EGNR 191700Z 1918/1921 VRB03KT 9999 SCT035 PROB30 TEMPO 1918/1921 7000 -RA BKN012

Wetterbeobachtungen und Prognosen von mehr als 4000 Flughäfen (METAR und TAF Bericht).

Die verfügbaren Stationen werden durch gelbe und rote Markierungen auf der Karte dargestellt.

Führen Sie die Maus auf sie, um den Namen der Station zu sehen.

Darauf klicken, um die Beobachtung von Wetterbeobachtungen und Prognosen zu sehen.

Um die Karte zu ändern : klicken Sie auf den grünen Tasten mit einem schwarzen Kreuz Zum Vergrößern, auf den grünen Button mit einem Gedankenstrich zu verkleinern, oder auf die grünen Pfeile für benachbarte Karten.


METAR-TAF: